Time;durP1;ratioP1;P1;durP2;ratioP2;P2;SDS_P1;SDS_P2;PMS_P1;PMS_P2;Temp;Humidity;BMP_temperature;BMP_pressure;BME280_temperature;BME280_humidity;BME280_pressure;Samples;Min_cycle;Max_cycle;Signal;HPM_P1;HPM_P2
2022/09/23 00:00:30;;;;;;;14.43;9.55;;;307.30;2304.00;;;;;;5032114;28;20034;-81
2022/09/23 00:02:55;;;;;;;10.77;6.90;;;282.50;2278.40;;;;;;5031939;28;20030;-83
2022/09/23 00:05:22;;;;;;;10.88;7.60;;;282.40;2278.40;;;;;;5031956;28;20113;-81
2022/09/23 00:07:48;;;;;;;13.00;7.78;;;282.50;2278.40;;;;;;5032230;28;20463;-83
2022/09/23 00:10:14;;;;;;;10.57;6.93;;;282.50;2278.40;;;;;;5031882;28;20113;-82
2022/09/23 00:12:40;;;;;;;13.52;6.78;;;282.50;2278.40;;;;;;5037538;28;20045;-81
2022/09/23 00:15:06;;;;;;;11.52;7.15;;;282.50;2278.40;;;;;;5057147;28;20037;-81
2022/09/23 00:17:32;;;;;;;14.52;8.88;;;282.40;2278.40;;;;;;5058354;28;20492;-82
2022/09/23 00:19:58;;;;;;;14.27;8.00;;;282.40;2278.40;;;;;;5032138;28;20111;-82
2022/09/23 00:22:23;;;;;;;10.77;7.70;;;282.50;2278.40;;;;;;5031768;28;20073;-82
2022/09/23 00:24:49;;;;;;;11.90;6.68;;;282.50;2278.40;;;;;;5025906;28;20062;-80
2022/09/23 00:27:15;;;;;;;9.38;6.13;;;282.50;2278.40;;;;;;5011973;28;20113;-83
2022/09/23 00:29:41;;;;;;;10.75;6.18;;;282.40;2278.40;;;;;;5010473;28;20030;-81
2022/09/23 00:32:07;;;;;;;9.10;5.88;;;282.30;2278.40;;;;;;5011825;28;20092;-82
2022/09/23 00:34:33;;;;;;;8.23;6.20;;;282.20;2278.40;;;;;;5029600;28;20061;-82
2022/09/23 00:36:59;;;;;;;8.13;5.50;;;282.20;2278.40;;;;;;5014231;28;20029;-82
2022/09/23 00:39:25;;;;;;;7.38;5.88;;;282.30;2278.40;;;;;;5015277;28;20030;-82
2022/09/23 00:41:51;;;;;;;9.40;5.95;;;282.20;2278.40;;;;;;5016275;28;20022;-82
2022/09/23 00:44:38;;;;;;;8.52;6.35;;;282.20;2278.40;;;;;;5052804;28;20057;-81
2022/09/23 00:47:09;;;;;;;10.77;6.72;;;282.10;2278.40;;;;;;5071773;28;20099;-82
2022/09/23 00:49:35;;;;;;;12.90;7.07;;;282.10;2278.40;;;;;;5038145;28;20468;-82
2022/09/23 00:52:08;;;;;;;10.90;6.60;;;282.10;2278.40;;;;;;5037734;28;20063;-81
2022/09/23 00:54:34;;;;;;;9.45;6.43;;;282.10;2278.40;;;;;;5037992;28;20025;-82
2022/09/23 00:57:02;;;;;;;12.73;6.47;;;282.10;2278.40;;;;;;5037830;28;20082;-82
2022/09/23 00:59:28;;;;;;;9.13;6.97;;;282.00;2278.40;;;;;;5055222;28;20028;-82
2022/09/23 01:01:56;;;;;;;10.07;6.55;;;281.90;2278.40;;;;;;5070679;28;20386;-82
2022/09/23 01:04:25;;;;;;;12.60;7.15;;;281.90;2278.40;;;;;;5037352;28;20033;-81
2022/09/23 01:06:50;;;;;;;16.17;6.85;;;281.90;2278.40;;;;;;5036598;28;20032;-83
2022/09/23 01:09:17;;;;;;;10.38;6.38;;;281.80;2278.40;;;;;;5054946;28;20021;-81
2022/09/23 01:11:59;;;;;;;12.18;6.43;;;281.90;2278.40;;;;;;5037398;28;20082;-82
2022/09/23 01:15:08;;;;;;;10.80;6.47;;;281.90;2278.40;;;;;;5037599;28;20036;-82
2022/09/23 01:18:03;;;;;;;14.77;8.52;;;281.90;2278.40;;;;;;5053044;28;20044;-83
2022/09/23 01:20:58;;;;;;;10.55;7.32;;;281.70;2278.40;;;;;;5070436;28;20077;-82
2022/09/23 01:23:45;;;;;;;11.35;6.50;;;281.70;2278.40;;;;;;5055338;28;20108;-83
2022/09/23 01:26:43;;;;;;;12.65;6.25;;;281.70;2278.40;;;;;;5053814;28;20025;-83
2022/09/23 01:29:32;;;;;;;15.27;7.10;;;281.70;2278.40;;;;;;5042761;28;20120;-83
2022/09/23 01:32:01;;;;;;;11.38;6.47;;;281.70;2278.40;;;;;;5053819;28;20025;-82
2022/09/23 01:34:44;;;;;;;9.20;6.57;;;281.60;2278.40;;;;;;5070137;28;20485;-83
2022/09/23 01:37:19;;;;;;;10.15;6.55;;;256.70;2252.80;;;;;;5037245;28;20029;-83
2022/09/23 01:39:53;;;;;;;8.70;6.18;;;256.90;2252.80;;;;;;5036868;28;20041;-82
2022/09/23 01:42:53;;;;;;;9.55;5.90;;;256.80;2252.80;;;;;;5037062;28;20021;-83
2022/09/23 01:45:31;;;;;;;9.73;7.15;;;256.80;2252.80;;;;;;5033853;28;20039;-83
2022/09/23 01:48:43;;;;;;;10.35;6.82;;;256.80;2252.80;;;;;;5053237;28;20028;-83
2022/09/23 01:51:15;;;;;;;9.13;6.07;;;256.80;2252.80;;;;;;5036562;28;20040;-83
2022/09/23 01:53:52;;;;;;;9.25;6.13;;;256.70;2252.80;;;;;;5054681;28;20081;-83
2022/09/23 01:56:26;;;;;;;10.57;6.22;;;256.80;2252.80;;;;;;5053691;28;20029;-83
2022/09/23 01:59:01;;;;;;;8.30;5.60;;;256.80;2252.80;;;;;;5036588;28;20029;-83
2022/09/23 02:01:52;;;;;;;12.38;5.97;;;256.80;2252.80;;;;;;5036312;28;20029;-84
2022/09/23 02:04:31;;;;;;;9.35;5.68;;;256.80;2252.80;;;;;;5053252;28;20032;-82
2022/09/23 02:07:02;;;;;;;9.55;7.68;;;256.40;2252.80;;;;;;5053185;28;20525;-84
2022/09/23 02:09:38;;;;;;;9.18;6.85;;;256.50;2252.80;;;;;;5052391;28;20458;-82
2022/09/23 02:12:11;;;;;;;11.02;7.03;;;256.60;2252.80;;;;;;5055800;28;20025;-82
2022/09/23 02:14:43;;;;;;;;;;;256.50;2252.80;;;;;;5056083;28;20020;-83
2022/09/23 02:17:12;;;;;;;10.70;6.82;;;256.50;2252.80;;;;;;5074390;28;19904;-83
2022/09/23 02:19:46;;;;;;;8.75;5.78;;;256.50;2252.80;;;;;;5056295;28;20504;-81
2022/09/23 02:22:39;;;;;;;10.93;6.47;;;256.50;2252.80;;;;;;5074038;28;20553;-83
2022/09/23 02:25:08;;;;;;;12.05;7.70;;;256.50;2252.80;;;;;;5064551;28;20029;-83
2022/09/23 02:27:53;;;;;;;7.47;5.55;;;256.50;2252.80;;;;;;5035985;28;20120;-83
2022/09/23 02:30:30;;;;;;;12.93;7.07;;;256.30;2252.80;;;;;;5053112;28;20033;-84
2022/09/23 02:33:19;;;;;;;13.45;6.03;;;256.00;2252.80;;;;;;5068294;28;20025;-83
2022/09/23 02:35:58;;;;;;;9.40;5.70;;;256.10;2252.80;;;;;;5036004;28;20021;-84
2022/09/23 02:38:51;;;;;;;8.95;5.75;;;256.20;2252.80;;;;;;5035097;28;20131;-83
2022/09/23 02:41:36;;;;;;;11.90;5.25;;;256.20;2252.80;;;;;;5036143;28;20043;-83
2022/09/23 02:44:14;;;;;;;9.23;5.63;;;256.20;2252.80;;;;;;5051936;28;20501;-84
2022/09/23 02:46:42;;;;;;;9.13;6.28;;;256.20;2252.80;;;;;;5036198;28;20056;-83
2022/09/23 02:49:10;;;;;;;11.52;6.35;;;256.30;2252.80;;;;;;5035890;28;20059;-83
2022/09/23 02:51:37;;;;;;;8.43;5.28;;;256.30;2252.80;;;;;;5053534;28;20025;-84
2022/09/23 02:54:09;;;;;;;7.85;5.80;;;256.20;2252.80;;;;;;5035871;28;20029;-82
2022/09/23 02:56:36;;;;;;;10.47;5.30;;;256.30;2252.80;;;;;;5068994;28;20025;-83
2022/09/23 02:59:02;;;;;;;9.32;6.13;;;256.30;2252.80;;;;;;5053829;28;20724;-81
2022/09/23 03:01:34;;;;;;;7.80;5.50;;;231.30;2252.80;;;;;;5035803;28;20029;-83
2022/09/23 03:04:09;;;;;;;8.80;6.57;;;256.10;2252.80;;;;;;5052220;28;20029;-82
2022/09/23 03:06:53;;;;;;;8.60;5.57;;;256.20;2252.80;;;;;;5053923;28;20029;-83
2022/09/23 03:09:28;;;;;;;8.80;5.85;;;256.20;2252.80;;;;;;5052393;28;20025;-83
2022/09/23 03:12:23;;;;;;;8.20;5.80;;;231.10;2252.80;;;;;;5052190;28;20379;-83
2022/09/23 03:15:11;;;;;;;8.55;5.90;;;256.10;2252.80;;;;;;5035866;28;20029;-81
2022/09/23 03:18:01;;;;;;;7.82;6.15;;;256.10;2252.80;;;;;;5052012;28;20440;-83
2022/09/23 03:20:39;;;;;;;9.30;5.55;;;256.10;2252.80;;;;;;5052253;28;20529;-80
2022/09/23 03:23:09;;;;;;;10.35;7.10;;;231.20;2252.80;;;;;;5035386;28;20059;-82
2022/09/23 03:25:38;;;;;;;8.52;6.82;;;231.20;2252.80;;;;;;5035521;28;20481;-83
2022/09/23 03:28:07;;;;;;;11.15;6.90;;;231.20;2252.80;;;;;;5053428;28;20026;-82
2022/09/23 03:30:37;;;;;;;8.77;5.93;;;231.30;2252.80;;;;;;5036288;28;20401;-82
2022/09/23 03:33:05;;;;;;;9.95;6.55;;;231.30;2252.80;;;;;;5039339;28;20029;-83
2022/09/23 03:36:48;;;;;;;9.52;5.93;;;231.10;2252.80;;;;;;5039441;28;20021;-83
2022/09/23 03:38:24;;;;;;;8.02;5.90;;;231.20;2252.80;;;;;;5056691;28;20029;-83
2022/09/23 03:40:53;;;;;;;10.43;5.95;;;231.10;2252.80;;;;;;5057304;28;20029;-84
2022/09/23 03:43:19;;;;;;;9.50;5.85;;;231.00;2252.80;;;;;;5036014;28;20080;-82
2022/09/23 03:45:45;;;;;;;9.05;5.93;;;230.80;2252.80;;;;;;5035848;28;20029;-83
2022/09/23 03:48:13;;;;;;;8.95;5.72;;;230.70;2252.80;;;;;;5036077;28;20064;-83
2022/09/23 03:50:40;;;;;;;10.18;6.05;;;230.90;2252.80;;;;;;5036117;28;20036;-84
2022/09/23 03:53:06;;;;;;;9.48;6.63;;;230.90;2252.80;;;;;;5035573;28;20029;-83
2022/09/23 03:55:33;;;;;;;10.55;6.78;;;230.90;2252.80;;;;;;5035983;28;20025;-82
2022/09/23 03:57:59;;;;;;;9.65;6.57;;;231.00;2252.80;;;;;;5035871;28;20498;-81
2022/09/23 04:00:26;;;;;;;10.73;6.82;;;230.90;2252.80;;;;;;5068906;28;20038;-82
2022/09/23 04:02:51;;;;;;;9.98;6.53;;;230.90;2252.80;;;;;;5027041;28;20033;-82
2022/09/23 04:05:17;;;;;;;9.23;6.43;;;230.80;2252.80;;;;;;5016022;28;20057;-83
2022/09/23 04:07:43;;;;;;;9.55;6.38;;;230.70;2252.80;;;;;;5014529;28;20026;-81
2022/09/23 04:10:10;;;;;;;8.88;6.35;;;230.80;2252.80;;;;;;5015950;28;20476;-85
2022/09/23 04:12:36;;;;;;;8.80;6.55;;;230.80;2252.80;;;;;;5017048;28;20032;-82
2022/09/23 04:15:03;;;;;;;9.02;6.63;;;230.80;2252.80;;;;;;5015689;28;20025;-83
2022/09/23 04:17:29;;;;;;;8.95;7.20;;;230.80;2252.80;;;;;;5015683;28;20036;-83
2022/09/23 04:19:55;;;;;;;10.07;6.43;;;;;;;;;;5016498;28;20061;-83
2022/09/23 04:22:21;;;;;;;9.43;6.13;;;230.90;2252.80;;;;;;5031889;28;20117;-83
2022/09/23 04:24:47;;;;;;;11.52;6.47;;;230.80;2252.80;;;;;;5016827;28;20032;-83
2022/09/23 04:27:13;;;;;;;10.65;6.90;;;230.80;2252.80;;;;;;5016230;28;20026;-79
2022/09/23 04:29:39;;;;;;;7.50;5.97;;;230.90;2252.80;;;;;;5015576;28;20087;-82
2022/09/23 04:32:04;;;;;;;10.65;7.70;;;230.90;2252.80;;;;;;5015347;28;20084;-83
2022/09/23 04:34:30;;;;;;;13.25;7.72;;;230.90;2252.80;;;;;;5015344;28;20030;-82
2022/09/23 04:36:56;;;;;;;16.27;9.15;;;230.80;2252.80;;;;;;5015348;28;20353;-83
2022/09/23 04:39:22;;;;;;;11.43;8.63;;;230.80;2252.80;;;;;;5016624;28;20068;-80
2022/09/23 04:41:47;;;;;;;16.40;12.30;;;230.90;2252.80;;;;;;5047447;28;20104;-82
2022/09/23 04:44:14;;;;;;;19.10;11.93;;;230.90;2252.80;;;;;;5030885;28;20121;-81
2022/09/23 04:46:42;;;;;;;17.65;11.60;;;231.00;2252.80;;;;;;5031748;28;20030;-83
2022/09/23 04:49:08;;;;;;;19.33;11.48;;;231.00;2252.80;;;;;;5016304;28;20022;-83
2022/09/23 04:51:34;;;;;;;15.93;11.05;;;231.00;2252.80;;;;;;5031303;28;20387;-83
2022/09/23 04:54:00;;;;;;;18.08;10.93;;;230.90;2252.80;;;;;;5031591;28;20026;-83
2022/09/23 04:56:31;;;;;;;21.98;12.50;;;230.80;2252.80;;;;;;5031251;28;20029;-82
2022/09/23 04:58:57;;;;;;;19.95;12.55;;;230.80;2252.80;;;;;;5031578;28;20116;-82
2022/09/23 05:01:33;;;;;;;19.08;11.43;;;230.60;2252.80;;;;;;5031424;28;20133;-83
2022/09/23 05:04:01;;;;;;;23.30;11.88;;;230.60;2252.80;;;;;;5016220;28;20109;-84
2022/09/23 05:06:28;;;;;;;14.90;9.50;;;;;;;;;;5014863;28;20033;-82
2022/09/23 05:08:55;;;;;;;19.33;8.82;;;;;;;;;;5031164;28;20076;-83
2022/09/23 05:11:22;;;;;;;18.55;12.70;;;;;;;;;;5030885;28;20030;-83
2022/09/23 05:13:50;;;;;;;20.33;11.77;;;205.70;2252.80;;;;;;5014666;28;20068;-81
2022/09/23 05:16:16;;;;;;;26.52;10.55;;;205.40;2252.80;;;;;;5030892;28;20116;-82
2022/09/23 05:18:44;;;;;;;25.35;11.75;;;230.40;2252.80;;;;;;5031216;28;20026;-82
2022/09/23 05:21:18;;;;;;;24.00;11.82;;;230.50;2252.80;;;;;;5014391;28;20085;-81
2022/09/23 05:23:49;;;;;;;19.17;11.05;;;230.50;2252.80;;;;;;5030675;28;20034;-83
2022/09/23 05:26:15;;;;;;;23.75;13.88;;;230.40;2252.80;;;;;;5015641;28;20018;-82
2022/09/23 05:28:41;;;;;;;22.85;12.65;;;230.50;2252.80;;;;;;5030987;28;20101;-83
2022/09/23 05:31:15;;;;;;;23.55;13.05;;;230.60;2252.80;;;;;;5015435;28;20034;-83
2022/09/23 05:33:53;;;;;;;25.02;12.98;;;230.60;2252.80;;;;;;5031080;28;20026;-83
2022/09/23 05:36:21;;;;;;;18.90;13.35;;;205.70;2252.80;;;;;;5014494;28;20125;-84
2022/09/23 05:38:48;;;;;;;17.20;12.60;;;230.50;2252.80;;;;;;5030498;28;20034;-83
2022/09/23 05:41:15;;;;;;;25.30;13.15;;;230.70;2252.80;;;;;;5015517;28;20061;-83
2022/09/23 05:43:41;;;;;;;17.50;11.50;;;230.70;2252.80;;;;;;5030007;28;20052;-81
2022/09/23 05:46:10;;;;;;;15.48;10.10;;;230.90;2252.80;;;;;;5030484;28;20026;-83
2022/09/23 05:48:36;;;;;;;21.50;10.57;;;231.00;2252.80;;;;;;5027117;28;20510;-81
2022/09/23 05:51:05;;;;;;;15.98;10.65;;;256.20;2252.80;;;;;;5033544;28;20029;-83
2022/09/23 05:53:31;;;;;;;13.85;8.68;;;230.80;2252.80;;;;;;5033107;28;20021;-83
2022/09/23 05:55:57;;;;;;;18.60;9.30;;;230.60;2252.80;;;;;;5033756;28;20022;-84
2022/09/23 05:58:23;;;;;;;18.58;9.75;;;230.50;2252.80;;;;;;5033418;28;20035;-83
2022/09/23 06:00:50;;;;;;;15.68;9.70;;;230.60;2252.80;;;;;;5066916;28;20044;-83
2022/09/23 06:03:18;;;;;;;12.02;8.55;;;230.80;2252.80;;;;;;5020740;28;20022;-82
2022/09/23 06:05:45;;;;;;;12.30;10.02;;;230.90;2252.80;;;;;;5030163;28;20464;-83
2022/09/23 06:08:11;;;;;;;15.15;9.70;;;231.10;2252.80;;;;;;5029058;28;20033;-83
2022/09/23 06:10:42;;;;;;;14.45;9.55;;;231.20;2252.80;;;;;;5013752;28;20034;-83
2022/09/23 06:13:09;;;;;;;21.95;11.88;;;231.10;2252.80;;;;;;5013346;28;20026;-83
2022/09/23 06:15:35;;;;;;;18.95;11.07;;;231.20;2252.80;;;;;;5030007;28;20093;-83
2022/09/23 06:18:02;;;;;;;14.63;11.00;;;231.10;2252.80;;;;;;5014420;28;20032;-82
2022/09/23 06:20:27;;;;;;;19.80;12.40;;;231.10;2252.80;;;;;;5014326;28;20586;-83
2022/09/23 06:22:53;;;;;;;23.45;11.90;;;231.10;2252.80;;;;;;5013561;28;20120;-83
2022/09/23 06:25:21;;;;;;;18.00;10.95;;;256.00;2252.80;;;;;;5029848;28;20052;-81
2022/09/23 06:27:57;;;;;;;14.65;10.35;;;256.00;2252.80;;;;;;5029622;28;20022;-82
2022/09/23 06:30:25;;;;;;;16.05;9.32;;;256.00;2252.80;;;;;;5029678;28;20044;-83
2022/09/23 06:32:52;;;;;;;16.17;8.70;;;256.00;2252.80;;;;;;5046422;28;20026;-84
2022/09/23 06:35:18;;;;;;;11.00;7.97;;;256.00;2252.80;;;;;;5012960;28;20022;-83
2022/09/23 06:37:45;;;;;;;11.65;8.10;;;256.30;2252.80;;;;;;5013282;28;20395;-83
2022/09/23 06:40:11;;;;;;;13.63;7.55;;;256.60;2252.80;;;;;;5014270;28;20065;-80
2022/09/23 06:42:37;;;;;;;10.52;7.80;;;256.50;2252.80;;;;;;5014590;28;20057;-83
2022/09/23 06:45:03;;;;;;;10.85;7.47;;;256.60;2252.80;;;;;;5029816;28;20029;-83
2022/09/23 06:47:28;;;;;;;10.68;6.85;;;256.80;2252.80;;;;;;5013196;28;20026;-84
2022/09/23 06:49:54;;;;;;;12.65;7.28;;;256.80;2252.80;;;;;;5015213;28;20080;-83
2022/09/23 06:52:20;;;;;;;12.68;8.13;;;256.80;2252.80;;;;;;5028595;28;20091;-82
2022/09/23 06:54:49;;;;;;;11.75;7.97;;;256.80;2252.80;;;;;;5027843;28;20022;-84
2022/09/23 06:57:15;;;;;;;15.32;8.90;;;256.70;2252.80;;;;;;5029412;28;20026;-83
2022/09/23 06:59:41;;;;;;;14.07;8.88;;;256.80;2252.80;;;;;;5029319;28;20426;-83
2022/09/23 07:02:10;;;;;;;15.18;8.40;;;256.80;2252.80;;;;;;5028613;28;20022;-83
2022/09/23 07:04:36;;;;;;;13.25;8.18;;;281.60;2278.40;;;;;;5028957;28;20117;-83
2022/09/23 07:07:02;;;;;;;12.25;8.30;;;281.70;2278.40;;;;;;5044637;28;20121;-83
2022/09/23 07:09:28;;;;;;;10.65;7.53;;;281.90;2278.40;;;;;;5028827;28;20032;-85
2022/09/23 07:11:54;;;;;;;12.07;7.85;;;281.90;2278.40;;;;;;5045740;28;20022;-85
2022/09/23 07:14:19;;;;;;;16.23;7.10;;;282.00;2278.40;;;;;;5045685;28;20030;-84
2022/09/23 07:16:48;;;;;;;11.45;6.93;;;282.20;2278.40;;;;;;5045449;28;20029;-84
2022/09/23 07:19:14;;;;;;;9.10;5.95;;;282.40;2278.40;;;;;;5045828;28;20053;-85
2022/09/23 07:21:40;;;;;;;12.52;6.90;;;307.20;2304.00;;;;;;5029068;28;20460;-85
2022/09/23 07:24:06;;;;;;;9.05;5.82;;;307.20;2304.00;;;;;;5045360;28;20034;-84
2022/09/23 07:26:32;;;;;;;9.55;6.13;;;307.20;2304.00;;;;;;5013898;28;20057;-84
2022/09/23 07:29:06;;;;;;;9.43;6.15;;;307.40;2304.00;;;;;;5062420;28;20021;-83
2022/09/23 07:31:34;;;;;;;9.18;5.80;;;307.50;2304.00;;;;;;5053783;28;20010;-81
2022/09/23 07:34:00;;;;;;;13.65;6.10;;;307.40;2304.00;;;;;;5064472;28;20456;-84
2022/09/23 07:36:31;;;;;;;12.27;7.80;;;307.60;2304.00;;;;;;5045306;28;20033;-83
2022/09/23 07:39:01;;;;;;;10.15;7.28;;;307.60;2304.00;;;;;;5045832;28;20030;-82
2022/09/23 07:41:28;;;;;;;15.93;7.20;;;308.00;2304.00;;;;;;5045494;28;20041;-81
2022/09/23 07:43:57;;;;;;;11.07;7.70;;;307.70;2304.00;;;;;;5043943;28;20048;-83
2022/09/23 07:46:26;;;;;;;9.43;7.15;;;307.80;2304.00;;;;;;5035373;28;20090;-82
2022/09/23 07:48:52;;;;;;;11.70;7.28;;;307.80;2304.00;;;;;;5035190;28;20032;-82
2022/09/23 07:51:23;;;;;;;9.30;6.68;;;308.10;2304.00;;;;;;5035032;28;20482;-82
2022/09/23 07:53:50;;;;;;;10.68;6.72;;;308.10;2304.00;;;;;;5035420;28;20118;-82
2022/09/23 07:56:18;;;;;;;11.25;7.82;;;308.10;2304.00;;;;;;5035247;28;20025;-82
2022/09/23 07:58:44;;;;;;;12.57;7.53;;;332.80;2329.60;;;;;;5034823;28;20481;-83
2022/09/23 08:01:11;;;;;;;11.60;7.90;;;332.90;2329.60;;;;;;5035165;28;20033;-83
2022/09/23 08:03:38;;;;;;;10.13;7.82;;;333.00;2329.60;;;;;;5035327;28;20029;-83
2022/09/23 08:06:10;;;;;;;10.30;6.07;;;333.10;2329.60;;;;;;5034732;28;20028;-80
2022/09/23 08:08:42;;;;;;;9.20;5.90;;;333.20;2329.60;;;;;;5035270;28;20021;-80
2022/09/23 08:11:10;;;;;;;10.15;6.90;;;333.20;2329.60;;;;;;5053281;28;20036;-79
2022/09/23 08:13:36;;;;;;;6.63;4.20;;;333.30;2329.60;;;;;;5034933;28;20029;-79
2022/09/23 08:16:02;;;;;;;8.95;4.45;;;333.50;2329.60;;;;;;5035221;28;20115;-80
2022/09/23 08:18:29;;;;;;;6.28;4.75;;;333.40;2329.60;;;;;;5038456;28;20461;-79
2022/09/23 08:20:54;;;;;;;6.72;5.03;;;333.50;2329.60;;;;;;5038582;28;20044;-81
2022/09/23 08:23:20;;;;;;;8.77;4.78;;;333.50;2329.60;;;;;;5038651;28;20025;-80
2022/09/23 08:25:47;;;;;;;5.65;4.20;;;333.50;2329.60;;;;;;5055997;28;20029;-81
2022/09/23 08:28:17;;;;;;;8.68;5.30;;;333.40;2329.60;;;;;;5038573;28;20025;-81
2022/09/23 08:30:47;;;;;;;6.65;5.35;;;358.40;2329.60;;;;;;5038424;28;20154;-79
2022/09/23 08:33:13;;;;;;;10.88;5.53;;;358.50;2329.60;;;;;;5037893;28;20028;-81
2022/09/23 08:35:39;;;;;;;10.90;5.28;;;358.50;2329.60;;;;;;5056040;28;20056;-79
2022/09/23 08:38:06;;;;;;;9.13;4.60;;;358.70;2329.60;;;;;;5053793;28;20032;-81
2022/09/23 08:40:36;;;;;;;13.38;7.93;;;358.80;2329.60;;;;;;5037341;28;20391;-79
2022/09/23 08:43:06;;;;;;;13.10;6.93;;;358.80;2329.60;;;;;;5035890;28;20453;-78
2022/09/23 08:45:35;;;;;;;7.43;4.57;;;358.90;2329.60;;;;;;5037976;28;20116;-77
2022/09/23 08:48:12;;;;;;;7.28;4.18;;;359.10;2329.60;;;;;;5055204;28;20470;-77
2022/09/23 08:50:52;;;;;;;6.68;4.60;;;359.00;2329.60;;;;;;5056001;28;20029;-81
2022/09/23 08:53:34;;;;;;;9.18;6.78;;;359.00;2329.60;;;;;;5037684;28;20017;-81
2022/09/23 08:56:12;;;;;;;8.43;4.15;;;359.10;2329.60;;;;;;5037985;28;20025;-81
2022/09/23 08:58:59;;;;;;;8.50;4.35;;;359.10;2329.60;;;;;;5038103;28;20388;-80
2022/09/23 09:01:41;;;;;;;6.15;3.70;;;359.20;2329.60;;;;;;5053356;28;20040;-79
2022/09/23 09:04:30;;;;;;;7.43;4.18;;;359.10;2329.60;;;;;;5052466;28;20463;-80
2022/09/23 09:07:14;;;;;;;6.40;4.15;;;359.30;2329.60;;;;;;5036344;28;20021;-80
2022/09/23 09:10:02;;;;;;;6.38;4.10;;;359.30;2329.60;;;;;;5036501;28;20608;-79
2022/09/23 09:12:47;;;;;;;7.35;4.88;;;384.10;2329.60;;;;;;5053985;28;20032;-82
2022/09/23 09:15:21;;;;;;;7.20;5.20;;;384.00;2329.60;;;;;;5055356;28;20033;-84
2022/09/23 09:18:18;;;;;;;5.30;4.00;;;384.10;2329.60;;;;;;5038128;28;20455;-79
2022/09/23 09:21:07;;;;;;;6.13;4.13;;;384.10;2329.60;;;;;;5037552;28;20033;-81
2022/09/23 09:23:51;;;;;;;9.68;5.28;;;384.10;2329.60;;;;;;5037576;28;20031;-82
2022/09/23 09:26:25;;;;;;;9.73;5.20;;;384.30;2329.60;;;;;;5036388;28;20044;-83
2022/09/23 09:29:15;;;;;;;10.00;6.43;;;384.40;2329.60;;;;;;5036713;28;20027;-80
2022/09/23 09:31:46;;;;;;;61.10;41.33;;;384.50;2329.60;;;;;;5037496;28;20382;-83
2022/09/23 09:34:32;;;;;;;17.25;11.82;;;384.60;2329.60;;;;;;5037428;28;20025;-81
2022/09/23 09:37:23;;;;;;;18.00;11.27;;;384.70;2329.60;;;;;;5037655;28;20017;-81
2022/09/23 09:39:49;;;;;;;8.90;7.10;;;384.80;2329.60;;;;;;5037416;28;20489;-81
2022/09/23 09:42:22;;;;;;;10.23;6.47;;;384.90;2329.60;;;;;;5036926;28;20151;-82
2022/09/23 09:45:01;;;;;;;8.52;6.15;;;384.90;2329.60;;;;;;5036172;28;20477;-81
2022/09/23 09:47:55;;;;;;;8.40;5.50;;;384.90;2329.60;;;;;;5052851;28;20086;-82
2022/09/23 09:50:48;;;;;;;11.32;8.05;;;409.60;2355.20;;;;;;5035836;28;20154;-81
2022/09/23 09:53:22;;;;;;;8.40;6.25;;;409.60;2355.20;;;;;;5036049;28;20466;-78
2022/09/23 09:56:03;;;;;;;10.35;7.90;;;409.60;2355.20;;;;;;5049027;28;20123;-80
2022/09/23 09:58:49;;;;;;;5.13;3.88;;;409.70;2355.20;;;;;;5050351;28;20021;-80
2022/09/23 10:01:27;;;;;;;9.40;8.05;;;384.90;2329.60;;;;;;5036456;28;20044;-80
2022/09/23 10:03:59;;;;;;;7.38;5.68;;;384.80;2329.60;;;;;;5036505;28;20087;-81
2022/09/23 10:06:35;;;;;;;7.57;5.75;;;384.80;2329.60;;;;;;5036163;28;20025;-79
2022/09/23 10:09:01;;;;;;;22.02;15.30;;;384.80;2329.60;;;;;;5068996;28;20044;-79
2022/09/23 10:11:28;;;;;;;18.05;11.75;;;384.80;2329.60;;;;;;5035198;28;20402;-79
2022/09/23 10:14:17;;;;;;;9.10;6.28;;;384.90;2329.60;;;;;;5035805;28;20033;-79
2022/09/23 10:16:45;;;;;;;8.25;5.72;;;384.80;2329.60;;;;;;5036533;28;20064;-80
2022/09/23 10:19:25;;;;;;;7.88;4.88;;;384.70;2329.60;;;;;;5036350;28;20447;-79
2022/09/23 10:21:59;;;;;;;6.72;5.07;;;384.60;2329.60;;;;;;5034808;28;20060;-78
2022/09/23 10:24:31;;;;;;;12.88;6.53;;;384.70;2329.60;;;;;;5053019;28;20021;-80
2022/09/23 10:27:07;;;;;;;15.00;9.82;;;384.70;2329.60;;;;;;5035750;28;20051;-78
2022/09/23 10:29:47;;;;;;;6.85;5.75;;;384.90;2329.60;;;;;;5034966;28;20437;-80
2022/09/23 10:32:26;;;;;;;8.07;5.90;;;409.60;2355.20;;;;;;5034901;28;20035;-79
2022/09/23 10:35:14;;;;;;;8.45;5.18;;;409.70;2355.20;;;;;;5033291;28;20021;-80
2022/09/23 10:37:51;;;;;;;6.40;4.45;;;409.70;2355.20;;;;;;5052532;28;20474;-80
2022/09/23 10:46:44;;;;;;;7.40;4.28;;;435.50;2355.20;;;;;;5053869;28;20036;-81
2022/09/23 10:49:13;;;;;;;17.58;6.70;;;435.60;2355.20;;;;;;5035739;28;20485;-80
2022/09/23 10:52:26;;;;;;;5.35;4.22;;;435.60;2355.20;;;;;;5054060;28;20033;-82
2022/09/23 10:55:01;;;;;;;;;;;436.00;2355.20;;;;;;5020555;28;20124;-81
2022/09/23 10:57:45;;;;;;;6.43;3.78;;;435.90;2355.20;;;;;;5035608;28;20417;-81
2022/09/23 11:00:31;;;;;;;8.82;6.05;;;460.80;2380.80;;;;;;5069049;28;20474;-81
2022/09/23 11:03:25;;;;;;;6.70;4.90;;;460.90;2380.80;;;;;;5068822;28;20025;-80
2022/09/23 11:06:12;;;;;;;9.98;6.38;;;461.00;2380.80;;;;;;5053663;28;20107;-81
2022/09/23 11:08:52;;;;;;;12.65;8.73;;;461.20;2380.80;;;;;;5035722;28;20466;-82
2022/09/23 11:11:27;;;;;;;27.92;18.75;;;;;;;;;;5068359;28;20040;-82
2022/09/23 11:14:05;;;;;;;9.48;6.80;;;;;;;;;;5035642;28;20099;-80
2022/09/23 11:16:32;;;;;;;26.13;17.38;;;;;;;;;;5069154;28;20017;-84
2022/09/23 11:19:01;;;;;;;10.20;6.03;;;512.20;2252.80;;;;;;5053332;28;20017;-84
2022/09/23 11:21:44;;;;;;;13.57;9.25;;;512.20;2252.80;;;;;;5068586;28;20553;-80
2022/09/23 11:24:32;;;;;;;5.72;4.30;;;537.60;2201.60;;;;;;5068733;28;20021;-81
2022/09/23 11:27:10;;;;;;;5.18;4.07;;;512.70;2099.20;;;;;;5066499;28;20025;-80
2022/09/23 11:29:57;;;;;;;7.28;3.85;;;537.70;2150.40;;;;;;5050786;28;20029;-82
2022/09/23 11:32:28;;;;;;;8.80;5.00;;;537.70;2099.20;;;;;;5052288;28;20048;-78
2022/09/23 11:35:01;;;;;;;6.10;4.80;;;537.80;2073.60;;;;;;5067872;28;20025;-81
2022/09/23 11:37:39;;;;;;;9.05;7.38;;;538.50;2124.80;;;;;;5068966;28;20021;-79
2022/09/23 11:40:19;;;;;;;6.25;4.72;;;563.40;2099.20;;;;;;5035030;28;20067;-78
2022/09/23 11:43:27;;;;;;;8.05;5.68;;;563.50;2073.60;;;;;;5035058;28;20049;-79
2022/09/23 11:45:59;;;;;;;7.15;5.00;;;563.40;2022.40;;;;;;5035164;28;20136;-79
2022/09/23 11:48:35;;;;;;;;;;;563.60;2022.40;;;;;;5035631;28;20025;-77
2022/09/23 11:51:21;;;;;;;7.70;4.15;;;563.70;1945.60;;;;;;5035044;28;19905;-78
2022/09/23 11:53:54;;;;;;;8.25;5.72;;;563.20;1996.80;;;;;;5038673;28;20486;-77
2022/09/23 11:56:26;;;;;;;22.90;18.90;;;563.30;2048.00;;;;;;5039101;28;20382;-79
2022/09/23 11:59:02;;;;;;;8.15;6.30;;;538.10;1996.80;;;;;;5038622;28;20029;-77
2022/09/23 12:02:00;;;;;;;10.38;5.63;;;512.90;2022.40;;;;;;5072167;28;20064;-78
2022/09/23 12:04:26;;;;;;;8.60;5.63;;;512.40;2048.00;;;;;;5038561;28;20039;-80
2022/09/23 12:07:07;;;;;;;8.48;6.72;;;512.00;2073.60;;;;;;5072086;28;20025;-80
2022/09/23 12:09:51;;;;;;;7.50;5.28;;;487.10;2124.80;;;;;;5056712;28;20025;-80
2022/09/23 12:12:47;;;;;;;6.20;4.63;;;486.90;2099.20;;;;;;5056630;28;20021;-80
2022/09/23 12:15:28;;;;;;;8.77;5.65;;;486.60;2124.80;;;;;;5056349;28;20413;-81
2022/09/23 12:18:26;;;;;;;7.25;5.18;;;486.50;2176.00;;;;;;5071837;28;20107;-83
2022/09/23 12:21:35;;;;;;;6.60;4.43;;;461.70;2176.00;;;;;;5056127;28;20060;-82
2022/09/23 12:24:30;;;;;;;13.35;9.18;;;461.70;2176.00;;;;;;5072135;28;20032;-82
2022/09/23 12:26:59;;;;;;;14.65;10.85;;;461.50;2176.00;;;;;;5037994;28;20029;-81
2022/09/23 12:29:29;;;;;;;7.47;5.07;;;461.70;2201.60;;;;;;5038299;28;20474;-82
2022/09/23 12:31:55;;;;;;;9.27;6.55;;;487.30;2124.80;;;;;;5038248;28;20445;-81
2022/09/23 12:34:27;;;;;;;13.13;8.30;;;512.50;2048.00;;;;;;5037945;28;20064;-81
2022/09/23 12:37:00;;;;;;;18.35;11.13;;;537.80;2022.40;;;;;;5038171;28;20082;-79
2022/09/23 12:39:30;;;;;;;21.20;14.85;;;538.30;1971.20;;;;;;5038169;28;20035;-80
2022/09/23 12:42:14;;;;;;;20.77;13.57;;;563.50;1971.20;;;;;;5037626;28;20083;-79
2022/09/23 12:44:43;;;;;;;6.20;4.55;;;563.80;1996.80;;;;;;5038108;28;20044;-80
2022/09/23 12:47:24;;;;;;;5.10;3.17;;;;;;;;;;5037800;28;20463;-80
2022/09/23 12:49:57;;;;;;;5.22;3.30;;;;;;;;;;5071112;28;20032;-81
2022/09/23 12:52:24;;;;;;;5.53;3.53;;;563.90;1843.20;;;;;;5071255;28;20028;-81